Time;durP1;ratioP1;P1;durP2;ratioP2;P2;SDS_P1;SDS_P2;PMS_P1;PMS_P2;Temp;Humidity;BMP_temperature;BMP_pressure;BME280_temperature;BME280_humidity;BME280_pressure;Samples;Min_cycle;Max_cycle;Signal;HPM_P1;HPM_P2
2022/06/27 00:01:27;;;;;;;3.30;2.10;;;;;;;18.18;100.00;98430.47;5028369;28;20040;-68
2022/06/27 00:03:52;;;;;;;4.82;1.70;;;;;;;18.05;100.00;98386.28;5033715;28;20021;-68
2022/06/27 00:06:21;;;;;;;3.13;1.45;;;;;;;18.13;100.00;98403.06;5026039;28;20032;-68
2022/06/27 00:08:49;;;;;;;3.97;1.30;;;;;;;18.09;100.00;98401.91;5032013;28;20458;-68
2022/06/27 00:11:16;;;;;;;1.52;0.90;;;;;;;18.07;100.00;98393.13;5033465;28;20021;-68
2022/06/27 00:13:42;;;;;;;1.40;0.43;;;;;;;18.02;100.00;98389.53;5031344;28;20127;-68
2022/06/27 00:16:07;;;;;;;1.08;0.52;;;;;;;18.01;100.00;98391.47;5032703;28;20021;-67
2022/06/27 00:18:32;;;;;;;0.30;0.30;;;;;;;18.03;100.00;98404.91;5024495;28;20076;-68
2022/06/27 00:20:58;;;;;;;0.63;0.30;;;;;;;17.95;100.00;98425.34;5032555;28;20040;-68
2022/06/27 00:23:23;;;;;;;0.73;0.40;;;;;;;17.93;100.00;98435.72;5044193;28;20017;-68
2022/06/27 00:25:48;;;;;;;0.30;0.20;;;;;;;17.86;100.00;98441.41;5032723;28;20490;-68
2022/06/27 00:28:13;;;;;;;0.63;0.30;;;;;;;17.95;100.00;98485.56;5033780;28;20057;-68
2022/06/27 00:30:39;;;;;;;0.52;0.20;;;;;;;17.95;100.00;98507.47;5030919;28;20112;-68
2022/06/27 00:33:05;;;;;;;0.55;0.10;;;;;;;17.92;100.00;98535.34;5035112;28;20112;-69
2022/06/27 00:35:30;;;;;;;0.88;0.20;;;;;;;17.87;100.00;98543.50;5027460;28;20030;-68
2022/06/27 00:37:56;;;;;;;3.55;0.30;;;;;;;17.86;100.00;98544.59;5030014;28;20061;-68
2022/06/27 00:40:21;;;;;;;1.13;0.20;;;;;;;17.73;100.00;98549.31;5032642;28;20029;-68
2022/06/27 00:42:46;;;;;;;2.50;0.20;;;;;;;17.71;100.00;98580.75;5041239;28;20111;-68
2022/06/27 00:45:11;;;;;;;2.38;0.35;;;;;;;17.69;100.00;98624.81;5039545;28;20064;-68
2022/06/27 00:47:37;;;;;;;1.30;0.35;;;;;;;17.59;100.00;98627.41;5042743;28;20021;-68
2022/06/27 00:50:04;;;;;;;0.70;0.20;;;;;;;17.68;100.00;98636.84;5043267;28;20025;-68
2022/06/27 00:52:29;;;;;;;1.15;0.43;;;;;;;17.73;100.00;98664.25;5043517;28;20053;-68
2022/06/27 00:54:55;;;;;;;1.23;0.20;;;;;;;17.65;100.00;98710.38;5039917;28;20034;-68
2022/06/27 00:57:20;;;;;;;1.20;0.35;;;;;;;17.53;100.00;98767.94;5038287;28;20033;-68
2022/06/27 00:59:46;;;;;;;1.23;0.50;;;;;;;17.46;100.00;98794.63;5036341;28;20021;-68
2022/06/27 01:02:12;;;;;;;1.52;0.30;;;;;;;17.27;100.00;98791.31;5026095;28;20026;-68
2022/06/27 01:04:38;;;;;;;4.13;0.68;;;;;;;17.03;100.00;98791.44;5031813;28;20067;-68
2022/06/27 01:07:08;;;;;;;2.47;0.40;;;;;;;16.91;100.00;98784.38;5029478;28;20036;-67
2022/06/27 01:09:34;;;;;;;1.40;0.65;;;;;;;16.89;100.00;98762.75;5030919;28;20112;-68
2022/06/27 01:11:59;;;;;;;3.50;0.45;;;;;;;16.84;100.00;98718.94;5031356;28;20103;-67
2022/06/27 01:14:25;;;;;;;3.97;0.70;;;;;;;16.83;100.00;98704.44;5029389;28;20479;-68
2022/06/27 01:16:50;;;;;;;2.38;0.47;;;;;;;16.79;100.00;98694.25;5029632;28;20025;-67
2022/06/27 01:19:17;;;;;;;2.40;0.70;;;;;;;16.83;100.00;98677.13;5025736;28;20116;-67
2022/06/27 01:21:48;;;;;;;2.90;0.73;;;;;;;16.80;100.00;98672.16;5024506;28;20040;-68
2022/06/27 01:24:13;;;;;;;6.70;1.08;;;;;;;16.81;100.00;98640.19;5027334;28;20017;-68
2022/06/27 01:26:41;;;;;;;2.85;0.82;;;;;;;16.90;100.00;98622.31;5027185;28;20021;-68
2022/06/27 01:29:07;;;;;;;2.42;0.90;;;;;;;16.86;100.00;98594.66;5025100;28;20024;-68
2022/06/27 01:31:35;;;;;;;3.30;0.70;;;;;;;16.76;100.00;98604.56;5031769;28;20045;-67
2022/06/27 01:34:00;;;;;;;2.95;0.60;;;;;;;16.60;100.00;98567.97;5028702;28;20469;-67
2022/06/27 01:36:43;;;;;;;3.75;0.50;;;;;;;16.65;100.00;98565.31;5025490;28;20040;-68
2022/06/27 01:39:13;;;;;;;3.15;0.75;;;;;;;16.66;100.00;98517.78;5030257;28;20029;-67
2022/06/27 01:41:41;;;;;;;4.15;1.10;;;;;;;16.65;100.00;98417.81;5029510;28;20072;-68
2022/06/27 01:44:08;;;;;;;1.60;0.60;;;;;;;16.60;100.00;98398.63;5032313;28;20129;-67
2022/06/27 01:46:45;;;;;;;1.60;0.60;;;;;;;16.57;100.00;98404.59;5033520;28;20049;-67
2022/06/27 01:49:15;;;;;;;3.03;0.40;;;;;;;16.53;100.00;98433.47;5034996;28;20032;-67
2022/06/27 01:51:49;;;;;;;3.88;0.40;;;;;;;16.50;100.00;98437.53;5029869;28;20116;-68
2022/06/27 01:54:17;;;;;;;3.42;0.75;;;;;;;16.56;100.00;98425.63;5031861;28;20057;-67
2022/06/27 01:56:46;;;;;;;2.10;0.60;;;;;;;16.51;100.00;98406.44;5034737;28;20021;-68
2022/06/27 01:59:12;;;;;;;;;;;;;;;16.57;100.00;98371.84;5036550;28;20444;-68
2022/06/27 02:01:40;;;;;;;2.67;0.82;;;;;;;16.53;100.00;98357.88;5036382;28;20405;-68
2022/06/27 02:04:05;;;;;;;4.38;0.80;;;;;;;16.52;100.00;98369.84;5034013;28;20031;-68
2022/06/27 02:06:31;;;;;;;1.33;0.57;;;;;;;16.53;100.00;98381.59;5028019;28;20029;-68
2022/06/27 02:08:57;;;;;;;2.22;0.50;;;;;;;16.50;100.00;98407.50;5029467;28;20470;-68
2022/06/27 02:11:24;;;;;;;1.23;0.60;;;;;;;16.58;100.00;98414.44;5029117;28;20083;-68
2022/06/27 02:13:49;;;;;;;4.20;0.75;;;;;;;16.65;100.00;98418.63;5062687;22;20052;-70
2022/06/27 02:16:18;;;;;;;3.83;1.02;;;;;;;16.65;100.00;98428.75;5031962;28;20100;-70
2022/06/27 02:18:45;;;;;;;2.58;0.98;;;;;;;16.69;100.00;98407.19;5029415;28;20021;-70
2022/06/27 02:21:12;;;;;;;3.60;1.10;;;;;;;16.75;100.00;98395.28;5031182;28;20030;-70
2022/06/27 02:23:38;;;;;;;2.28;0.70;;;;;;;16.72;100.00;98401.25;5032135;28;20028;-70
2022/06/27 02:26:06;;;;;;;4.25;1.10;;;;;;;16.79;100.00;98410.09;5022269;28;20025;-70
2022/06/27 02:28:32;;;;;;;4.18;0.80;;;;;;;16.77;100.00;98407.66;5026304;28;20111;-70
2022/06/27 02:30:58;;;;;;;3.30;0.70;;;;;;;16.76;100.00;98402.38;5030708;28;20108;-70
2022/06/27 02:33:32;;;;;;;3.80;0.80;;;;;;;16.67;100.00;98380.16;5030881;28;20040;-70
2022/06/27 02:35:58;;;;;;;1.70;0.82;;;;;;;16.61;100.00;98395.66;5025869;28;20379;-70
2022/06/27 02:38:23;;;;;;;3.80;0.73;;;;;;;16.71;100.00;98411.34;5025216;28;20014;-70
2022/06/27 02:40:49;;;;;;;2.85;0.90;;;;;;;16.71;100.00;98397.69;5027991;28;20029;-70
2022/06/27 02:43:18;;;;;;;2.47;0.90;;;;;;;16.66;100.00;98403.06;5031336;28;20051;-70
2022/06/27 02:45:45;;;;;;;1.80;0.70;;;;;;;16.55;100.00;98404.03;5030393;28;20014;-70
2022/06/27 02:48:12;;;;;;;2.33;0.90;;;;;;;16.52;100.00;98421.72;5024860;28;20044;-70
2022/06/27 02:50:41;;;;;;;3.03;0.82;;;;;;;16.50;100.00;98426.63;5035764;28;20036;-70
2022/06/27 02:53:10;;;;;;;4.82;1.02;;;;;;;16.45;100.00;98429.28;5029906;28;20022;-70
2022/06/27 02:55:40;;;;;;;1.55;1.00;;;;;;;16.42;100.00;98425.13;5029471;28;20025;-71
2022/06/27 02:58:12;;;;;;;3.30;0.90;;;;;;;16.41;100.00;98430.88;5029373;28;20519;-69
2022/06/27 03:00:40;;;;;;;4.97;1.10;;;;;;;16.35;100.00;98434.59;5028538;28;20029;-71
2022/06/27 03:03:12;;;;;;;2.60;0.90;;;;;;;16.30;100.00;98413.50;5021884;28;20032;-71
2022/06/27 03:06:03;;;;;;;6.35;1.10;;;;;;;16.24;100.00;98411.75;5027807;28;20025;-71
2022/06/27 03:08:40;;;;;;;3.30;1.17;;;;;;;16.25;100.00;98424.34;5029028;28;20064;-70
2022/06/27 03:11:06;;;;;;;2.25;1.00;;;;;;;16.26;100.00;98419.72;5027496;28;20026;-70
2022/06/27 03:13:31;;;;;;;1.92;0.90;;;;;;;16.13;100.00;98412.69;5030338;28;20382;-70
2022/06/27 03:15:57;;;;;;;3.70;1.67;;;;;;;16.19;100.00;98436.25;5029245;28;20026;-70
2022/06/27 03:18:22;;;;;;;4.45;1.48;;;;;;;16.21;100.00;98442.28;5028823;28;20028;-70
2022/06/27 03:20:48;;;;;;;5.28;1.20;;;;;;;16.17;100.00;98449.34;5026638;28;20120;-70
2022/06/27 03:23:15;;;;;;;2.80;1.10;;;;;;;16.21;100.00;98436.81;5023597;28;20151;-70
2022/06/27 03:25:40;;;;;;;8.52;1.52;;;;;;;16.13;100.00;98427.16;5024674;28;20076;-70
2022/06/27 03:28:06;;;;;;;2.90;1.60;;;;;;;16.06;100.00;98422.94;5030342;28;20033;-70
2022/06/27 03:30:31;;;;;;;2.60;1.20;;;;;;;16.12;100.00;98430.16;5027015;28;20021;-70
2022/06/27 03:32:56;;;;;;;2.55;1.27;;;;;;;16.11;100.00;98440.25;5031039;28;20487;-70
2022/06/27 03:35:22;;;;;;;2.55;1.40;;;;;;;16.15;100.00;98443.28;5028054;28;20018;-70
2022/06/27 03:37:47;;;;;;;3.05;1.40;;;;;;;16.18;100.00;98440.06;5031269;28;20059;-70
2022/06/27 03:40:12;;;;;;;6.60;1.70;;;;;;;16.23;100.00;98452.97;5026267;28;20014;-70
2022/06/27 03:42:38;;;;;;;2.15;1.48;;;;;;;16.27;100.00;98452.22;5029377;28;20468;-70
2022/06/27 03:45:03;;;;;;;5.03;1.33;;;;;;;16.38;100.00;98445.84;5027857;28;20032;-69
2022/06/27 03:47:29;;;;;;;2.92;1.40;;;;;;;16.40;100.00;98432.78;5029827;28;20036;-68
2022/06/27 03:50:00;;;;;;;3.25;1.52;;;;;;;16.51;100.00;98444.66;5019493;28;20022;-71
2022/06/27 03:52:25;;;;;;;3.55;1.23;;;;;;;16.49;100.00;98435.06;5019371;28;22254;-71
2022/06/27 03:54:50;;;;;;;2.45;1.02;;;;;;;16.47;100.00;98437.22;5026868;28;20057;-71
2022/06/27 03:57:16;;;;;;;2.10;1.08;;;;;;;16.44;100.00;98461.22;5028362;28;20029;-71
2022/06/27 03:59:41;;;;;;;2.53;1.10;;;;;;;16.48;100.00;98477.94;5030009;28;20457;-70
2022/06/27 04:02:06;;;;;;;2.13;1.02;;;;;;;16.47;100.00;98478.19;5033112;28;20489;-71
2022/06/27 04:04:31;;;;;;;2.28;1.23;;;;;;;16.43;100.00;98492.34;5032360;28;20104;-72
2022/06/27 04:06:57;;;;;;;3.25;1.10;;;;;;;16.40;100.00;98478.34;5033278;28;20052;-71
2022/06/27 04:09:22;;;;;;;5.00;1.20;;;;;;;16.42;100.00;98479.75;5032048;28;20028;-71
2022/06/27 04:11:47;;;;;;;3.85;1.17;;;;;;;16.53;100.00;98469.84;5031261;28;20025;-72
2022/06/27 04:14:13;;;;;;;2.88;1.30;;;;;;;16.54;100.00;98468.75;5031297;28;20052;-72
2022/06/27 04:16:38;;;;;;;1.95;1.00;;;;;;;16.51;100.00;98424.75;5016572;28;20053;-71
2022/06/27 04:19:03;;;;;;;2.58;1.05;;;;;;;16.62;100.00;98407.41;5029951;28;20026;-72
2022/06/27 04:21:28;;;;;;;3.95;1.23;;;;;;;16.64;100.00;98392.41;5032042;28;20071;-71
2022/06/27 04:23:55;;;;;;;2.20;1.20;;;;;;;16.74;100.00;98394.47;5027056;28;20036;-68
2022/06/27 04:26:21;;;;;;;4.15;1.10;;;;;;;16.74;100.00;98399.94;5029144;28;20037;-64
2022/06/27 04:28:47;;;;;;;5.22;1.85;;;;;;;16.69;100.00;98432.63;5031422;28;20084;-70
2022/06/27 04:31:12;;;;;;;6.53;1.38;;;;;;;16.80;100.00;98480.06;5030803;28;20025;-69
2022/06/27 04:33:38;;;;;;;3.20;1.30;;;;;;;16.78;100.00;98477.59;5026261;28;20034;-68
2022/06/27 04:36:04;;;;;;;4.07;1.40;;;;;;;16.72;100.00;98484.03;5027534;28;20037;-68
2022/06/27 04:38:31;;;;;;;4.65;1.35;;;;;;;16.71;100.00;98465.97;5030776;28;20033;-67
2022/06/27 04:40:56;;;;;;;5.28;1.58;;;;;;;16.80;100.00;98453.56;5032950;28;20025;-67
2022/06/27 04:43:21;;;;;;;8.70;1.58;;;;;;;16.86;100.00;98444.34;5028478;28;20040;-70
2022/06/27 04:45:47;;;;;;;3.38;1.10;;;;;;;16.89;100.00;98437.56;5030683;28;20030;-69
2022/06/27 04:48:14;;;;;;;3.47;1.30;;;;;;;17.02;100.00;98400.84;5024156;28;20021;-65
2022/06/27 04:50:40;;;;;;;2.88;1.52;;;;;;;17.21;100.00;98361.16;5031412;28;20096;-65
2022/06/27 04:53:06;;;;;;;7.18;1.90;;;;;;;17.25;100.00;98378.69;5028298;28;20483;-67
2022/06/27 04:55:32;;;;;;;3.75;1.48;;;;;;;17.29;100.00;98388.03;5033614;28;20044;-66
2022/06/27 04:57:58;;;;;;;3.42;1.10;;;;;;;17.27;100.00;98375.72;5031245;28;20810;-65
2022/06/27 05:00:23;;;;;;;5.20;1.40;;;;;;;17.39;100.00;98391.94;5044378;28;20017;-68
2022/06/27 05:02:49;;;;;;;5.10;1.55;;;;;;;17.41;100.00;98389.78;5028395;28;20040;-72
2022/06/27 05:05:14;;;;;;;3.60;1.15;;;;;;;17.48;100.00;98387.69;5033178;28;20021;-68
2022/06/27 05:07:39;;;;;;;3.58;1.48;;;;;;;17.48;100.00;98415.84;5026912;28;20457;-68
2022/06/27 05:10:06;;;;;;;3.15;1.20;;;;;;;17.50;100.00;98440.19;5044342;28;20500;-70
2022/06/27 05:12:31;;;;;;;5.82;1.83;;;;;;;17.63;100.00;98441.69;5024968;28;20483;-69
2022/06/27 05:14:57;;;;;;;6.38;1.27;;;;;;;17.69;100.00;98437.94;5030527;28;20080;-69
2022/06/27 05:17:24;;;;;;;4.47;1.20;;;;;;;17.91;100.00;98474.28;5023259;28;20021;-70
2022/06/27 05:19:49;;;;;;;3.72;1.55;;;;;;;18.12;100.00;98479.97;5029232;28;20021;-70
2022/06/27 05:22:15;;;;;;;3.83;1.00;;;;;;;18.24;100.00;98494.31;5024175;28;20029;-70
2022/06/27 05:24:40;;;;;;;6.57;1.30;;;;;;;18.22;100.00;98492.94;5030687;28;20131;-68
2022/06/27 05:27:06;;;;;;;4.82;1.33;;;;;;;18.04;100.00;98464.00;5028329;28;20037;-70
2022/06/27 05:29:32;;;;;;;5.18;1.40;;;;;;;18.54;100.00;98515.63;5032025;28;20148;-69
2022/06/27 05:31:58;;;;;;;3.15;1.52;;;;;;;18.26;100.00;98492.16;5031975;28;20033;-69
2022/06/27 05:34:23;;;;;;;4.50;1.63;;;;;;;18.50;100.00;98519.19;5026338;28;20146;-69
2022/06/27 05:36:49;;;;;;;3.10;1.55;;;;;;;18.36;100.00;98527.00;5028840;28;20025;-66
2022/06/27 05:39:14;;;;;;;7.53;1.90;;;;;;;18.52;100.00;98530.69;5032477;28;20022;-69
2022/06/27 05:41:43;;;;;;;1.92;0.95;;;;;;;18.65;100.00;98515.72;5032779;28;20036;-69
2022/06/27 05:44:09;;;;;;;2.70;1.27;;;;;;;18.83;100.00;98518.88;5026261;28;20538;-68
2022/06/27 05:46:37;;;;;;;4.65;1.65;;;;;;;19.12;100.00;98539.63;5026468;28;20478;-69
2022/06/27 05:49:03;;;;;;;7.07;1.38;;;;;;;19.26;100.00;98530.66;5029230;28;20076;-70
2022/06/27 05:51:29;;;;;;;2.67;1.23;;;;;;;19.50;100.00;98557.66;5038457;28;20394;-64
2022/06/27 05:53:56;;;;;;;2.45;1.45;;;;;;;19.45;100.00;98563.13;5033681;28;20025;-69
2022/06/27 05:56:24;;;;;;;4.53;1.40;;;;;;;19.46;100.00;98576.56;5025984;28;20029;-69
2022/06/27 05:58:50;;;;;;;6.40;1.60;;;;;;;19.24;100.00;98578.66;5030554;28;20233;-68
2022/06/27 06:01:16;;;;;;;4.60;1.10;;;;;;;19.23;100.00;98586.06;5028176;28;20029;-69
2022/06/27 06:03:42;;;;;;;2.60;1.30;;;;;;;19.43;100.00;98577.09;5026646;28;20029;-69
2022/06/27 06:06:07;;;;;;;3.88;1.00;;;;;;;19.62;100.00;98576.63;5039948;28;20028;-69
2022/06/27 06:08:32;;;;;;;2.38;0.82;;;;;;;19.99;100.00;98595.78;5031263;28;20025;-72
2022/06/27 06:10:58;;;;;;;3.72;0.90;;;;;;;19.96;100.00;98606.44;5031475;28;20033;-69
2022/06/27 06:13:25;;;;;;;2.13;0.80;;;;;;;19.62;100.00;98612.31;5027534;28;20481;-72
2022/06/27 06:15:50;;;;;;;1.80;0.60;;;;;;;19.77;100.00;98609.66;5030790;28;20029;-75
2022/06/27 06:18:17;;;;;;;3.00;0.98;;;;;;;19.57;100.00;98609.53;5030469;28;20026;-75
2022/06/27 06:20:42;;;;;;;2.70;0.52;;;;;;;19.55;100.00;98609.00;5027417;28;20021;-74
2022/06/27 06:23:08;;;;;;;2.53;0.50;;;;;;;19.63;100.00;98603.81;5029221;28;20433;-74
2022/06/27 06:25:33;;;;;;;1.38;0.47;;;;;;;19.69;100.00;98611.00;5030258;28;20060;-74
2022/06/27 06:28:01;;;;;;;1.98;0.52;;;;;;;19.63;100.00;98598.34;5031974;28;20043;-75
2022/06/27 06:30:29;;;;;;;2.97;0.60;;;;;;;19.76;100.00;98591.56;5030116;28;20450;-75
2022/06/27 06:32:55;;;;;;;2.67;0.60;;;;;;;19.74;100.00;98593.75;5029761;28;20029;-73
2022/06/27 06:35:20;;;;;;;4.30;0.70;;;;;;;19.67;100.00;98604.13;5037174;28;20057;-81
2022/06/27 06:37:46;;;;;;;3.00;0.40;;;;;;;19.61;100.00;98589.53;5038935;28;20024;-77
2022/06/27 06:40:16;;;;;;;1.95;0.57;;;;;;;19.64;100.00;98599.16;5035530;28;20028;-77
2022/06/27 06:42:41;;;;;;;0.73;0.50;;;;;;;19.69;100.00;98608.25;5022648;28;20052;-77
2022/06/27 06:45:07;;;;;;;2.40;0.70;;;;;;;19.81;100.00;98599.00;5031930;28;20029;-77
2022/06/27 06:47:33;;;;;;;2.25;0.70;;;;;;;19.77;100.00;98598.69;5032190;28;20509;-76
2022/06/27 06:49:59;;;;;;;2.35;0.60;;;;;;;20.09;100.00;98611.44;5034412;28;20032;-80
2022/06/27 06:52:24;;;;;;;1.88;0.60;;;;;;;20.11;100.00;98614.75;5032182;28;20734;-75
2022/06/27 06:54:50;;;;;;;4.15;0.70;;;;;;;19.90;100.00;98591.88;5034745;28;20031;-74
2022/06/27 06:57:16;;;;;;;2.25;0.75;;;;;;;19.86;100.00;98612.75;5028546;28;20032;-78
2022/06/27 06:59:41;;;;;;;2.05;0.75;;;;;;;19.65;100.00;98590.66;5048171;28;20108;-78
2022/06/27 07:02:08;;;;;;;3.92;1.05;;;;;;;19.84;100.00;98606.69;5028402;28;20116;-76
2022/06/27 07:04:34;;;;;;;2.58;0.90;;;;;;;19.83;100.00;98591.28;5033811;28;20093;-76
2022/06/27 07:07:00;;;;;;;2.67;0.80;;;;;;;20.05;100.00;98602.91;5029751;28;20117;-73
2022/06/27 07:09:26;;;;;;;1.38;1.10;;;;;;;20.24;100.00;98603.22;5032530;28;20526;-78
2022/06/27 07:11:52;;;;;;;2.65;1.00;;;;;;;20.60;100.00;98616.25;5031258;28;20022;-80
2022/06/27 07:14:18;;;;;;;3.17;1.08;;;;;;;20.84;100.00;98611.03;5032093;28;20498;-81
2022/06/27 07:16:44;;;;;;;5.47;0.90;;;;;;;21.59;100.00;98603.78;5032628;28;20017;-78
2022/06/27 07:19:10;;;;;;;2.15;1.10;;;;;;;21.99;100.00;98610.22;5037069;28;20017;-73
2022/06/27 07:21:35;;;;;;;1.00;0.80;;;;;;;22.62;100.00;98614.28;5030817;28;20033;-80
2022/06/27 07:24:02;;;;;;;1.40;0.90;;;;;;;22.68;100.00;98636.03;5033304;28;20033;-73
2022/06/27 07:26:29;;;;;;;3.20;1.60;;;;;;;22.08;100.00;98632.50;5026850;28;20032;-77
2022/06/27 07:28:55;;;;;;;2.28;1.20;;;;;;;21.24;100.00;98640.41;5033405;28;20467;-80
2022/06/27 07:31:21;;;;;;;1.80;1.20;;;;;;;21.20;100.00;98626.41;5029231;28;20033;-77
2022/06/27 07:33:51;;;;;;;1.90;1.25;;;;;;;21.19;100.00;98635.75;5032904;28;20024;-75
2022/06/27 07:36:19;;;;;;;3.28;1.52;;;;;;;20.03;100.00;98631.75;5032163;28;20029;-74
2022/06/27 07:38:46;;;;;;;2.65;1.38;;;;;;;20.23;100.00;98618.06;5036001;28;20028;-80
2022/06/27 07:41:16;;;;;;;2.13;1.85;;;;;;;19.98;100.00;98621.56;5035076;28;20067;-74
2022/06/27 07:43:43;;;;;;;2.10;1.88;;;;;;;20.22;100.00;98621.91;5031084;28;20033;-74
2022/06/27 07:46:09;;;;;;;3.42;1.80;;;;;;;20.21;100.00;98603.78;5028822;28;20068;-76
2022/06/27 07:48:35;;;;;;;3.90;2.10;;;;;;;20.18;100.00;98620.00;5036708;28;20029;-79
2022/06/27 07:51:00;;;;;;;2.45;2.00;;;;;;;20.19;100.00;98640.84;5034345;28;20033;-77
2022/06/27 07:53:26;;;;;;;2.83;2.30;;;;;;;20.04;100.00;98631.47;5036455;28;20053;-80
2022/06/27 07:55:53;;;;;;;2.80;2.20;;;;;;;20.12;100.00;98671.31;5032589;28;20660;-76
2022/06/27 07:58:26;;;;;;;4.70;2.10;;;;;;;20.16;100.00;98675.19;5029149;28;20359;-73
2022/06/27 08:00:51;;;;;;;3.13;2.22;;;;;;;19.95;100.00;98660.53;5030275;28;20116;-71
2022/06/27 08:03:37;;;;;;;4.15;2.40;;;;;;;20.06;100.00;98683.38;5028458;28;20531;-70
2022/06/27 08:06:23;;;;;;;2.90;2.20;;;;;;;19.95;100.00;98692.69;5032999;28;20382;-72
2022/06/27 08:08:53;;;;;;;4.47;2.53;;;;;;;19.83;100.00;98690.13;5027077;28;20021;-73
2022/06/27 08:11:24;;;;;;;3.15;1.88;;;;;;;19.92;100.00;98702.28;5029859;28;20053;-70
2022/06/27 08:13:52;;;;;;;3.92;2.33;;;;;;;19.86;100.00;98706.91;5031072;28;20030;-72
2022/06/27 08:16:20;;;;;;;2.75;2.40;;;;;;;19.39;100.00;98698.63;5024560;28;20017;-71
2022/06/27 08:18:47;;;;;;;3.92;2.60;;;;;;;19.48;100.00;98700.59;5030156;28;20487;-72
2022/06/27 08:21:19;;;;;;;2.80;2.50;;;;;;;19.48;100.00;98700.59;5029372;28;20111;-68
2022/06/27 08:23:46;;;;;;;3.80;3.03;;;;;;;19.43;100.00;98700.56;5051188;22;20104;-74
2022/06/27 08:26:12;;;;;;;3.17;2.70;;;;;;;19.60;100.00;98713.31;5033945;28;20029;-70
2022/06/27 08:28:41;;;;;;;3.95;2.40;;;;;;;19.68;100.00;98707.34;5033773;28;20029;-73
2022/06/27 08:31:09;;;;;;;2.75;2.50;;;;;;;19.81;100.00;98695.91;5033319;28;20096;-73
2022/06/27 08:33:35;;;;;;;5.03;2.72;;;;;;;19.89;100.00;98706.38;5032594;28;20025;-73
2022/06/27 08:36:02;;;;;;;3.92;2.95;;;;;;;20.12;100.00;98705.13;5019079;28;20383;-73
2022/06/27 08:38:28;;;;;;;4.22;2.47;;;;;;;20.45;100.00;98724.19;5014610;28;20383;-74
2022/06/27 08:40:54;;;;;;;4.72;2.47;;;;;;;20.41;100.00;98712.91;5013549;28;20029;-74
2022/06/27 08:43:20;;;;;;;2.85;2.33;;;;;;;20.36;100.00;98732.97;5009375;28;20053;-70
2022/06/27 08:45:47;;;;;;;6.15;2.40;;;;;;;20.32;100.00;98720.84;5011337;28;20037;-71
2022/06/27 08:48:14;;;;;;;2.42;2.05;;;;;;;20.13;100.00;98736.16;5010865;28;20026;-71
2022/06/27 08:50:41;;;;;;;2.20;1.65;;;;;;;20.00;100.00;98739.38;5001706;28;20030;-74
2022/06/27 08:53:07;;;;;;;5.82;1.70;;;;;;;19.78;100.00;98745.00;5010514;28;20030;-73
2022/06/27 08:55:34;;;;;;;2.70;1.60;;;;;;;19.84;100.00;98744.78;5004574;28;20514;-65
2022/06/27 08:58:06;;;;;;;2.10;1.70;;;;;;;19.71;100.00;98742.50;5021396;28;20041;-66
2022/06/27 09:00:37;;;;;;;1.70;1.42;;;;;;;19.77;100.00;98752.41;5006139;28;20034;-66
2022/06/27 09:03:06;;;;;;;2.58;1.67;;;;;;;19.75;100.00;98751.84;5013283;28;20050;-65
2022/06/27 09:05:32;;;;;;;2.20;1.40;;;;;;;19.62;100.00;98749.53;5005438;28;20060;-67
2022/06/27 09:08:01;;;;;;;3.20;1.90;;;;;;;19.76;100.00;98750.78;5019580;28;20411;-67
2022/06/27 09:10:36;;;;;;;3.42;1.80;;;;;;;19.70;100.00;98762.78;5008541;28;20048;-66
2022/06/27 09:13:08;;;;;;;3.55;1.65;;;;;;;20.46;100.00;98751.41;5007581;28;20053;-66
2022/06/27 09:15:39;;;;;;;5.60;1.67;;;;;;;20.98;100.00;98746.88;5025312;28;20037;-72
2022/06/27 09:18:07;;;;;;;3.38;1.63;;;;;;;21.48;100.00;98731.53;5026560;28;20026;-71
2022/06/27 09:20:54;;;;;;;1.75;1.33;;;;;;;22.00;100.00;98727.56;5028242;28;20026;-71
2022/06/27 09:23:35;;;;;;;1.83;1.45;;;;;;;21.82;100.00;98722.66;5021512;28;20026;-72
2022/06/27 09:26:10;;;;;;;1.50;1.40;;;;;;;22.03;100.00;98738.06;5029350;28;20022;-72
2022/06/27 09:28:40;;;;;;;1.98;1.13;;;;;;;22.39;100.00;98742.63;5021816;28;20025;-70
2022/06/27 09:31:13;;;;;;;1.85;1.30;;;;;;;22.29;100.00;98740.72;5022160;28;20032;-67
2022/06/27 09:33:42;;;;;;;2.15;1.27;;;;;;;22.26;100.00;98742.13;5016723;28;20113;-71
2022/06/27 09:36:13;;;;;;;1.88;1.13;;;;;;;22.00;100.00;98741.34;5010808;28;20093;-70
2022/06/27 09:38:43;;;;;;;1.52;1.20;;;;;;;21.60;100.00;98742.25;5009564;28;20037;-70
2022/06/27 09:41:13;;;;;;;3.55;1.50;;;;;;;21.39;100.00;98747.78;5010103;28;20120;-71
2022/06/27 09:43:42;;;;;;;1.88;1.38;;;;;;;20.95;100.00;98747.44;5007599;28;20018;-70
2022/06/27 09:46:10;;;;;;;1.25;1.13;;;;;;;21.22;100.00;98744.44;5005590;28;20033;-69
2022/06/27 09:48:42;;;;;;;5.23;1.20;;;;;;;21.31;100.00;98751.03;5005838;28;20037;-71
2022/06/27 09:51:10;;;;;;;1.40;1.30;;;;;;;21.31;100.00;98720.78;5006808;28;20502;-74
2022/06/27 09:53:36;;;;;;;1.80;1.30;;;;;;;21.59;100.00;98715.84;5012803;28;20032;-69
2022/06/27 09:56:05;;;;;;;2.00;1.20;;;;;;;21.97;100.00;98721.81;5005963;28;20036;-68
2022/06/27 09:58:33;;;;;;;1.73;1.20;;;;;;;22.11;100.00;98714.59;5010758;28;20049;-69
2022/06/27 10:00:58;;;;;;;2.35;1.10;;;;;;;22.34;100.00;98720.59;5009592;28;20030;-69
2022/06/27 10:03:25;;;;;;;2.17;1.17;;;;;;;22.51;100.00;98719.13;5013086;28;20546;-69
2022/06/27 10:05:50;;;;;;;1.48;1.20;;;;;;;22.58;100.00;98727.09;5002833;28;20057;-69
2022/06/27 10:08:16;;;;;;;1.73;1.20;;;;;;;22.91;100.00;98735.72;5012112;28;20064;-69
2022/06/27 10:11:00;;;;;;;1.30;1.20;;;;;;;22.83;100.00;98745.44;5000663;28;20499;-68
2022/06/27 10:13:26;;;;;;;3.38;1.00;;;;;;;22.70;100.00;98763.44;5006034;28;20042;-68
2022/06/27 10:15:52;;;;;;;4.30;1.20;;;;;;;22.14;100.00;98771.06;5003981;28;20029;-68
2022/06/27 10:18:18;;;;;;;1.45;1.17;;;;;;;22.01;100.00;98770.56;5001762;28;20053;-69
2022/06/27 10:20:47;;;;;;;1.60;1.15;;;;;;;22.08;100.00;98778.53;4997600;28;20189;-69
2022/06/27 10:23:13;;;;;;;2.13;1.17;;;;;;;22.36;100.00;98785.38;5008711;28;20167;-69
2022/06/27 10:25:44;;;;;;;1.58;1.30;;;;;;;22.80;100.00;98772.78;5001772;28;20092;-69
2022/06/27 10:28:09;;;;;;;4.03;1.20;;;;;;;24.13;100.00;98796.59;5007136;28;20032;-71
2022/06/27 10:30:42;;;;;;;3.42;1.55;;;;;;;24.24;100.00;98798.16;5008294;28;20017;-70
2022/06/27 10:33:22;;;;;;;5.88;1.17;;;;;;;24.00;100.00;98801.72;5011706;28;20038;-69
2022/06/27 10:36:01;;;;;;;1.45;1.00;;;;;;;24.11;100.00;98810.72;4999638;28;20088;-69
2022/06/27 10:38:31;;;;;;;1.40;1.02;;;;;;;24.21;100.00;98809.81;5003970;28;20042;-69
2022/06/27 10:40:59;;;;;;;2.15;1.23;;;;;;;24.20;100.00;98811.72;4997938;28;20129;-69
2022/06/27 10:43:36;;;;;;;2.72;1.15;;;;;;;24.16;97.84;98812.63;5011985;28;20022;-69
2022/06/27 10:46:04;;;;;;;1.73;1.02;;;;;;;23.47;100.00;98809.06;4999851;28;20057;-69
2022/06/27 10:48:35;;;;;;;1.10;1.00;;;;;;;23.04;100.00;98811.56;5009231;28;20488;-70
2022/06/27 10:51:18;;;;;;;1.63;0.93;;;;;;;22.46;100.00;98814.84;5005799;28;20071;-69
2022/06/27 10:53:45;;;;;;;1.20;1.00;;;;;;;22.13;100.00;98816.25;5006933;28;20030;-69
2022/06/27 10:56:29;;;;;;;2.97;1.10;;;;;;;22.35;100.00;98825.06;5013791;28;20683;-69
2022/06/27 10:58:54;;;;;;;1.70;1.40;;;;;;;23.00;100.00;98816.00;5008622;28;20109;-69
2022/06/27 11:01:21;;;;;;;4.40;1.10;;;;;;;23.78;100.00;98804.13;4999561;28;20482;-69
2022/06/27 11:03:47;;;;;;;2.30;0.82;;;;;;;24.98;88.24;98809.72;5004906;28;20372;-69
2022/06/27 11:06:15;;;;;;;2.45;0.80;;;;;;;25.61;85.18;98810.47;5001902;28;20026;-70
2022/06/27 11:08:43;;;;;;;2.72;1.08;;;;;;;25.82;88.63;98806.22;5002738;28;20443;-72
2022/06/27 11:11:16;;;;;;;1.00;0.90;;;;;;;25.38;85.42;98813.03;5012523;28;20030;-71
2022/06/27 11:13:48;;;;;;;1.45;1.00;;;;;;;24.45;85.20;98804.31;5005475;28;20113;-70
2022/06/27 11:16:21;;;;;;;3.60;1.20;;;;;;;23.35;92.87;98795.63;5009320;28;20040;-70
2022/06/27 11:19:00;;;;;;;1.85;1.20;;;;;;;23.44;97.66;98804.09;5009518;28;20169;-70
2022/06/27 11:21:37;;;;;;;1.52;1.20;;;;;;;23.78;97.78;98835.34;5002643;28;20109;-69
2022/06/27 11:24:11;;;;;;;1.58;1.27;;;;;;;25.64;79.94;98818.16;5008208;28;20030;-70
2022/06/27 11:26:45;;;;;;;1.35;1.08;;;;;;;27.41;70.55;98828.06;5005348;28;20033;-69
2022/06/27 11:32:04;;;;;;;2.15;1.77;;;;;;;25.15;75.26;98828.56;5004328;28;20506;-71